Time;durP1;ratioP1;P1;durP2;ratioP2;P2;SDS_P1;SDS_P2;PMS_P1;PMS_P2;Temp;Humidity;BMP_temperature;BMP_pressure;BME280_temperature;BME280_humidity;BME280_pressure;Samples;Min_cycle;Max_cycle;Signal;HPM_P1;HPM_P2
2022/07/23 00:02:06;;;;;;;21.83;13.18;;;;;;;22.59;49.20;99483.06;5091673;28;20072;-80
2022/07/23 00:04:33;;;;;;;29.15;12.50;;;;;;;22.61;49.34;99488.38;5090307;28;20036;-81
2022/07/23 00:06:58;;;;;;;21.98;12.90;;;;;;;22.66;49.22;99488.75;5091766;28;20028;-81
2022/07/23 00:09:24;;;;;;;21.05;12.70;;;;;;;22.67;49.08;99489.53;5091585;28;20024;-81
2022/07/23 00:11:49;;;;;;;30.75;14.10;;;;;;;22.62;49.08;99490.00;5091661;28;20043;-81
2022/07/23 00:14:15;;;;;;;25.33;14.82;;;;;;;22.35;49.98;99487.69;5091532;28;20022;-80
2022/07/23 00:16:40;;;;;;;20.55;13.20;;;;;;;22.11;50.33;99488.19;5093694;28;20024;-81
2022/07/23 00:19:09;;;;;;;19.05;12.43;;;;;;;22.16;50.30;99481.25;5094214;28;20028;-80
2022/07/23 00:21:34;;;;;;;22.13;13.23;;;;;;;22.28;50.21;99485.69;5095957;28;20020;-79
2022/07/23 00:24:00;;;;;;;17.58;12.57;;;;;;;22.18;50.62;99487.34;5095185;28;20042;-81
2022/07/23 00:26:25;;;;;;;20.83;12.05;;;;;;;21.94;51.43;99486.25;5092809;28;20114;-80
2022/07/23 00:28:50;;;;;;;22.55;12.63;;;;;;;21.84;51.54;99485.03;5093782;28;20016;-80
2022/07/23 00:31:16;;;;;;;22.73;13.10;;;;;;;21.73;51.99;99491.63;5095440;28;20027;-81
2022/07/23 00:33:42;;;;;;;25.35;13.48;;;;;;;21.70;52.02;99486.72;5095385;28;20091;-80
2022/07/23 00:36:08;;;;;;;21.13;12.20;;;;;;;21.65;52.28;99484.28;5095509;28;20020;-80
2022/07/23 00:38:33;;;;;;;24.55;13.98;;;;;;;21.46;52.72;99482.69;5095161;28;20112;-81
2022/07/23 00:40:59;;;;;;;28.63;14.75;;;;;;;21.28;53.22;99479.88;5110545;28;20028;-80
2022/07/23 00:43:24;;;;;;;27.25;14.43;;;;;;;21.35;53.34;99494.09;5093511;28;20509;-80
2022/07/23 00:45:50;;;;;;;24.80;15.13;;;;;;;21.39;53.20;99494.91;5093136;28;20468;-80
2022/07/23 00:48:16;;;;;;;20.80;14.38;;;;;;;21.08;53.89;99485.19;5095203;28;20487;-81
2022/07/23 01:05:45;;;;;;;19.15;10.07;;;;;;;20.96;54.33;99495.75;5149273;27;20999;-74
2022/07/23 01:08:11;;;;;;;21.98;10.15;;;;;;;20.96;54.30;99501.44;5120725;27;20032;-75
2022/07/23 01:10:36;;;;;;;17.77;10.35;;;;;;;20.86;54.60;99496.56;5113159;28;20015;-74
2022/07/23 01:13:02;;;;;;;17.42;10.25;;;;;;;20.77;55.04;99502.63;5128982;28;20485;-75
2022/07/23 01:15:28;;;;;;;14.30;10.60;;;;;;;20.82;55.08;99501.44;5125374;27;20571;-75
2022/07/23 01:17:54;;;;;;;17.35;10.80;;;;;;;20.72;55.58;99503.00;5147654;27;20110;-74
2022/07/23 01:20:20;;;;;;;23.33;11.88;;;;;;;20.52;56.28;99492.03;5127437;27;20101;-75
2022/07/23 01:22:46;;;;;;;23.33;12.55;;;;;;;20.57;56.32;99494.44;5147724;27;20057;-75
2022/07/23 01:25:11;;;;;;;27.10;14.65;;;;;;;20.79;55.60;99485.97;5138087;27;20088;-75
2022/07/23 01:27:37;;;;;;;24.13;15.65;;;;;;;20.88;55.18;99489.25;5134421;27;20102;-74
2022/07/23 01:30:03;;;;;;;23.98;13.82;;;;;;;20.96;55.07;99495.75;5120149;28;20034;-75
2022/07/23 01:32:29;;;;;;;24.92;15.75;;;;;;;21.03;54.74;99478.69;5155765;27;20113;-75
2022/07/23 01:34:54;;;;;;;24.90;17.27;;;;;;;20.88;54.91;99486.41;5130809;27;20177;-75
2022/07/23 01:37:20;;;;;;;24.45;16.83;;;;;;;20.64;55.35;99495.69;5148397;27;20026;-74
2022/07/23 01:39:45;;;;;;;26.38;18.50;;;;;;;20.38;55.73;99489.94;5140927;27;20061;-74
2022/07/23 01:42:11;;;;;;;34.97;18.92;;;;;;;20.16;56.19;99484.19;5127617;27;20061;-75
2022/07/23 01:44:36;;;;;;;28.27;19.23;;;;;;;20.29;56.16;99492.34;5110818;28;20031;-74
2022/07/23 01:47:02;;;;;;;28.50;19.10;;;;;;;20.25;55.76;99492.34;5140838;27;20105;-75
2022/07/23 01:49:28;;;;;;;32.42;19.77;;;;;;;20.29;55.59;99487.50;5117347;28;20027;-74
2022/07/23 01:51:59;;;;;;;27.70;18.55;;;;;;;20.28;55.94;99493.56;5115363;27;20015;-75
2022/07/23 01:54:26;;;;;;;41.47;21.10;;;;;;;20.24;55.82;99496.41;5149501;27;20011;-75
2022/07/23 01:56:51;;;;;;;36.95;21.60;;;;;;;20.03;56.51;99492.28;5127171;27;20103;-74
2022/07/23 01:59:17;;;;;;;43.65;20.50;;;;;;;20.04;56.59;99499.59;5121026;28;20027;-75
2022/07/23 02:01:42;;;;;;;29.25;21.10;;;;;;;19.88;56.92;99482.84;5127537;27;20023;-75
2022/07/23 02:04:08;;;;;;;30.38;21.02;;;;;;;19.85;57.06;99494.19;5127721;27;20040;-74
2022/07/23 02:06:33;;;;;;;29.88;20.77;;;;;;;19.85;56.87;99491.34;5095042;28;20058;-74
2022/07/23 02:08:59;;;;;;;32.42;21.48;;;;;;;19.81;56.99;99501.88;5109212;28;20044;-74
2022/07/23 02:11:24;;;;;;;29.58;19.88;;;;;;;19.85;56.75;99495.00;5084620;28;20031;-76
2022/07/23 02:13:50;;;;;;;31.77;19.98;;;;;;;19.99;56.55;99497.13;5107941;28;20050;-74
2022/07/23 02:16:15;;;;;;;31.42;19.23;;;;;;;20.06;56.15;99491.47;5103667;28;20042;-75
2022/07/23 02:18:41;;;;;;;29.33;19.15;;;;;;;20.04;56.38;99493.91;5095577;27;20493;-75
2022/07/23 02:21:06;;;;;;;30.13;19.35;;;;;;;19.97;56.53;99493.03;5095766;28;20027;-75
2022/07/23 02:23:32;;;;;;;28.65;19.60;;;;;;;19.89;56.76;99493.00;5105266;28;20020;-75
2022/07/23 02:25:57;;;;;;;36.75;20.17;;;;;;;19.85;57.02;99485.66;5098728;27;20023;-75
2022/07/23 02:28:23;;;;;;;25.67;18.25;;;;;;;19.92;56.79;99499.91;5113919;27;20035;-75
2022/07/23 02:30:48;;;;;;;32.60;19.25;;;;;;;19.94;56.54;99485.34;5113621;28;20055;-75
2022/07/23 02:33:13;;;;;;;32.58;18.85;;;;;;;19.95;56.53;99489.78;5099156;27;20039;-75
2022/07/23 02:35:39;;;;;;;41.03;20.52;;;;;;;19.83;57.21;99494.56;5093892;28;20028;-75
2022/07/23 02:38:05;;;;;;;27.10;19.20;;;;;;;19.83;57.00;99482.41;5099250;28;20433;-74
2022/07/23 02:40:30;;;;;;;35.15;17.75;;;;;;;19.82;57.23;99492.94;5111829;27;20042;-74
2022/07/23 02:42:56;;;;;;;27.38;18.63;;;;;;;19.94;56.70;99489.00;5125531;27;20106;-75
2022/07/23 02:45:21;;;;;;;60.45;18.48;;;;;;;20.04;56.88;99507.28;5105418;27;20057;-74
2022/07/23 02:47:46;;;;;;;28.10;16.25;;;;;;;20.03;56.82;99491.47;5113528;28;20524;-74
2022/07/23 02:50:12;;;;;;;31.67;15.73;;;;;;;19.90;57.30;99505.16;5100530;27;20027;-74
2022/07/23 02:52:38;;;;;;;21.45;16.40;;;;;;;19.88;57.29;99499.06;5091009;27;20042;-75
2022/07/23 02:55:04;;;;;;;31.88;16.48;;;;;;;19.61;58.05;99505.00;5075465;28;20040;-74
2022/07/23 02:57:30;;;;;;;25.70;16.55;;;;;;;19.68;57.95;99504.22;5078805;28;20036;-74
2022/07/23 02:59:55;;;;;;;28.85;16.88;;;;;;;19.33;58.81;99500.78;5103059;28;20107;-74
2022/07/23 03:02:21;;;;;;;25.63;17.08;;;;;;;19.23;59.23;99502.31;5103353;27;20020;-74
2022/07/23 03:04:46;;;;;;;28.10;15.90;;;;;;;19.15;59.54;99503.47;5110128;28;20100;-74
2022/07/23 03:07:12;;;;;;;27.17;15.00;;;;;;;19.27;59.28;99497.50;5114164;27;20080;-75
2022/07/23 03:09:37;;;;;;;31.10;15.73;;;;;;;19.32;59.20;99504.81;5113334;27;20019;-75
2022/07/23 03:12:03;;;;;;;21.77;14.75;;;;;;;19.28;59.18;99512.47;5099381;27;20056;-71
2022/07/23 03:14:29;;;;;;;26.05;15.60;;;;;;;19.19;59.82;99515.66;5106392;28;20055;-71
2022/07/23 03:16:54;;;;;;;31.30;16.58;;;;;;;19.12;59.85;99502.25;5108052;28;20081;-74
2022/07/23 03:19:20;;;;;;;32.75;16.83;;;;;;;19.20;59.97;99512.44;5103692;27;20028;-71
2022/07/23 03:21:45;;;;;;;30.88;16.25;;;;;;;19.16;60.03;99517.25;5102464;28;20024;-73
2022/07/23 03:24:11;;;;;;;30.45;15.23;;;;;;;19.14;60.14;99516.03;5102023;27;20055;-73
2022/07/23 03:26:36;;;;;;;23.58;14.82;;;;;;;19.00;60.64;99519.56;5101228;27;20520;-72
2022/07/23 03:29:03;;;;;;;29.95;16.27;;;;;;;19.09;60.76;99514.38;5097185;28;20026;-78
2022/07/23 03:31:30;;;;;;;18.95;14.23;;;;;;;19.04;60.53;99512.72;5094647;28;20027;-75
2022/07/23 03:33:56;;;;;;;23.40;14.40;;;;;;;19.03;60.53;99504.59;5095557;28;20027;-75
2022/07/23 03:36:21;;;;;;;24.45;13.80;;;;;;;18.97;60.98;99517.47;5104247;27;20038;-75
2022/07/23 03:38:47;;;;;;;33.30;13.95;;;;;;;19.05;60.47;99516.34;5098371;28;20111;-75
2022/07/23 03:41:12;;;;;;;29.08;13.32;;;;;;;19.10;60.56;99520.84;5086569;28;20038;-75
2022/07/23 03:43:38;;;;;;;19.75;12.75;;;;;;;18.94;60.73;99522.72;5101959;28;20095;-75
2022/07/23 03:46:03;;;;;;;38.88;12.98;;;;;;;18.96;61.03;99521.53;5116670;27;20069;-75
2022/07/23 03:48:29;;;;;;;30.58;11.70;;;;;;;18.87;60.93;99519.81;5084177;28;20028;-75
2022/07/23 03:50:54;;;;;;;21.63;12.18;;;;;;;18.98;61.26;99530.44;5082303;27;20028;-75
2022/07/23 03:53:20;;;;;;;15.93;11.30;;;;;;;19.02;61.06;99525.63;5106477;27;20023;-75
2022/07/23 03:55:45;;;;;;;15.13;11.38;;;;;;;19.15;60.86;99523.31;5121241;27;20622;-72
2022/07/23 03:58:11;;;;;;;22.58;12.25;;;;;;;19.15;60.77;99526.97;5090083;27;20034;-73
2022/07/23 04:00:36;;;;;;;20.77;12.45;;;;;;;19.27;60.37;99522.19;5119386;27;20551;-74
2022/07/23 04:03:02;;;;;;;26.88;15.30;;;;;;;19.17;60.46;99527.38;5119145;27;20099;-74
2022/07/23 04:05:27;;;;;;;25.92;16.20;;;;;;;19.10;60.30;99518.84;5132306;27;20420;-74
2022/07/23 04:07:53;;;;;;;23.95;16.50;;;;;;;19.07;60.40;99528.13;5108306;27;20031;-78
2022/07/23 04:10:20;;;;;;;23.33;16.75;;;;;;;19.01;60.88;99524.00;5101862;28;20637;-72
2022/07/23 04:12:45;;;;;;;30.90;16.70;;;;;;;19.02;60.98;99531.31;5084787;28;20436;-74
2022/07/23 04:15:11;;;;;;;23.38;16.17;;;;;;;19.09;61.30;99537.03;5095364;27;20034;-73
2022/07/23 04:17:36;;;;;;;28.20;17.05;;;;;;;19.21;61.05;99533.91;5098445;28;20391;-73
2022/07/23 04:20:03;;;;;;;25.23;17.02;;;;;;;19.35;60.17;99538.06;5125018;27;20023;-73
2022/07/23 04:22:28;;;;;;;29.23;16.85;;;;;;;19.28;60.25;99535.16;5129597;27;20023;-73
2022/07/23 04:24:53;;;;;;;23.92;14.85;;;;;;;19.45;60.37;99525.97;5131776;27;20570;-73
2022/07/23 04:27:19;;;;;;;23.17;14.60;;;;;;;19.47;59.86;99536.91;5113972;27;20029;-73
2022/07/23 04:29:44;;;;;;;25.58;14.57;;;;;;;19.63;59.50;99528.09;5131963;27;20449;-73
2022/07/23 04:32:10;;;;;;;25.75;14.18;;;;;;;19.76;59.08;99534.28;5132155;27;20034;-73
2022/07/23 04:34:35;;;;;;;18.58;11.80;;;;;;;19.96;58.31;99534.81;5132246;27;20378;-73
2022/07/23 04:37:01;;;;;;;18.55;12.18;;;;;;;20.20;57.76;99535.31;5132368;27;20034;-73
2022/07/23 04:39:26;;;;;;;22.38;12.40;;;;;;;20.27;57.52;99528.88;5132925;27;20031;-73
2022/07/23 04:41:52;;;;;;;23.67;13.27;;;;;;;20.48;56.93;99533.78;5132437;27;20027;-73
2022/07/23 04:44:17;;;;;;;21.25;11.70;;;;;;;20.66;56.60;99539.53;5132245;27;20026;-73
2022/07/23 04:46:43;;;;;;;24.63;11.60;;;;;;;20.94;55.96;99538.00;5132206;27;20037;-73
2022/07/23 04:49:08;;;;;;;21.58;10.82;;;;;;;20.96;55.73;99546.91;5132214;27;20075;-73
2022/07/23 04:51:34;;;;;;;12.30;9.30;;;;;;;21.00;54.70;99529.88;5114427;28;20435;-73
2022/07/23 04:53:59;;;;;;;12.60;9.38;;;;;;;21.14;54.62;99529.88;5132011;28;20024;-73
2022/07/23 04:56:25;;;;;;;15.48;9.23;;;;;;;21.23;54.36;99542.84;5132093;28;20046;-73
2022/07/23 04:58:50;;;;;;;21.55;8.70;;;;;;;21.41;53.71;99532.28;5132081;28;20027;-73
2022/07/23 05:01:16;;;;;;;12.80;9.43;;;;;;;21.54;53.29;99523.31;5113819;28;20511;-73
2022/07/23 05:03:41;;;;;;;17.02;8.60;;;;;;;21.80;52.81;99536.31;5131900;28;20043;-73
2022/07/23 05:06:07;;;;;;;13.65;10.15;;;;;;;22.01;52.32;99535.44;5132164;28;20469;-73
2022/07/23 05:08:32;;;;;;;16.20;8.82;;;;;;;22.18;51.79;99530.06;5132014;28;20468;-73
2022/07/23 05:10:58;;;;;;;25.00;10.65;;;;;;;22.31;51.01;99519.03;5122209;28;20077;-73
2022/07/23 05:13:24;;;;;;;14.60;8.35;;;;;;;22.40;50.48;99524.28;5090427;28;20024;-73
2022/07/23 05:15:49;;;;;;;13.20;8.35;;;;;;;22.53;49.86;99518.97;5090970;28;20089;-73
2022/07/23 05:18:14;;;;;;;12.23;7.28;;;;;;;22.67;49.40;99516.00;5090960;28;20028;-73
2022/07/23 05:20:40;;;;;;;11.95;8.02;;;;;;;22.83;48.71;99521.22;5091058;28;20020;-73
2022/07/23 05:23:06;;;;;;;21.48;8.32;;;;;;;23.04;48.19;99524.31;5090826;28;20107;-73
2022/07/23 05:25:32;;;;;;;26.05;8.95;;;;;;;23.23;48.02;99517.22;5106540;28;20545;-73
2022/07/23 05:27:58;;;;;;;14.88;8.18;;;;;;;23.33;46.87;99507.78;5090943;28;20028;-73
2022/07/23 05:30:23;;;;;;;14.75;8.40;;;;;;;23.57;46.77;99516.53;5106922;28;20137;-73
2022/07/23 05:32:49;;;;;;;13.60;8.15;;;;;;;23.80;46.64;99517.91;5090770;28;20028;-73
2022/07/23 05:35:14;;;;;;;22.25;7.35;;;;;;;23.94;44.62;99514.91;5090927;28;20035;-73
2022/07/23 05:37:40;;;;;;;11.80;8.00;;;;;;;23.95;45.02;99516.50;5090873;28;20043;-73
2022/07/23 05:40:08;;;;;;;15.18;8.23;;;;;;;24.18;44.71;99515.03;5091257;28;20035;-73
2022/07/23 05:42:34;;;;;;;18.02;7.05;;;;;;;24.40;44.23;99520.47;5094648;28;20085;-73
2022/07/23 05:45:00;;;;;;;16.77;8.20;;;;;;;24.45;44.25;99508.56;5094661;28;20683;-73
2022/07/23 05:47:26;;;;;;;15.77;8.35;;;;;;;24.48;44.12;99510.53;5094464;28;20028;-74
2022/07/23 05:49:51;;;;;;;17.95;8.00;;;;;;;24.54;44.26;99505.97;5094578;28;20094;-73
2022/07/23 05:52:17;;;;;;;19.75;9.77;;;;;;;24.57;43.21;99512.06;5110873;28;20031;-73
2022/07/23 05:54:42;;;;;;;13.93;8.75;;;;;;;24.68;44.39;99515.59;5094171;28;20020;-73
2022/07/23 05:57:08;;;;;;;59.08;35.38;;;;;;;24.68;44.19;99516.41;5076109;28;20089;-73
2022/07/23 05:59:33;;;;;;;32.88;19.48;;;;;;;24.72;43.84;99513.47;5094256;28;20063;-73
2022/07/23 06:01:59;;;;;;;20.98;12.48;;;;;;;24.80;44.54;99509.28;5094239;28;20035;-73
2022/07/23 06:04:24;;;;;;;10.57;8.10;;;;;;;25.23;43.68;99512.72;5094072;28;20036;-73
2022/07/23 06:06:50;;;;;;;13.50;8.02;;;;;;;25.44;42.78;99520.09;5094200;28;20020;-73
2022/07/23 06:09:15;;;;;;;15.50;8.98;;;;;;;25.67;42.78;99517.66;5109740;28;20035;-74
2022/07/23 06:11:41;;;;;;;24.90;9.38;;;;;;;25.82;42.21;99513.28;5110137;28;20028;-73
2022/07/23 06:14:06;;;;;;;12.27;8.02;;;;;;;25.90;40.59;99511.91;5075655;28;20202;-73
2022/07/23 06:16:32;;;;;;;17.92;8.50;;;;;;;26.20;40.73;99512.16;5094085;28;20027;-73
2022/07/23 06:18:57;;;;;;;17.83;8.63;;;;;;;26.27;40.28;99517.72;5119166;27;20565;-73
2022/07/23 06:21:23;;;;;;;14.45;7.15;;;;;;;26.38;39.00;99514.63;5096068;28;20054;-73
2022/07/23 06:23:49;;;;;;;12.07;7.13;;;;;;;26.59;39.05;99515.41;5095849;28;20050;-73
2022/07/23 06:26:15;;;;;;;25.25;11.95;;;;;;;26.61;38.89;99510.84;5095979;28;20093;-74
2022/07/23 06:28:40;;;;;;;11.85;7.65;;;;;;;26.68;39.04;99515.59;5114192;28;20028;-73
2022/07/23 06:31:06;;;;;;;16.25;7.18;;;;;;;26.75;39.24;99515.41;5129909;27;20028;-73
2022/07/23 06:33:31;;;;;;;22.30;14.90;;;;;;;26.86;38.41;99502.88;5114055;28;20054;-73
2022/07/23 06:35:57;;;;;;;26.65;7.63;;;;;;;26.98;37.38;99510.03;5114253;28;20019;-73
2022/07/23 06:38:22;;;;;;;15.85;7.38;;;;;;;26.98;37.20;99507.16;5113969;28;20058;-73
2022/07/23 06:40:48;;;;;;;22.02;9.25;;;;;;;26.99;36.97;99494.41;5114195;28;20493;-73
2022/07/23 06:43:13;;;;;;;16.75;8.00;;;;;;;27.35;36.48;99504.16;5113821;28;20032;-73
2022/07/23 06:45:39;;;;;;;22.42;9.27;;;;;;;27.58;35.20;99498.22;5113968;28;20031;-73
2022/07/23 06:48:05;;;;;;;14.05;7.55;;;;;;;27.66;35.02;99501.69;5113944;28;20102;-73
2022/07/23 06:50:30;;;;;;;20.08;11.45;;;;;;;27.90;35.41;99489.97;5095394;28;20108;-73
2022/07/23 06:52:56;;;;;;;11.57;7.32;;;;;;;28.20;34.15;99492.81;5114311;28;20045;-73
2022/07/23 06:55:24;;;;;;;11.18;7.70;;;;;;;28.41;33.99;99486.44;5113469;28;20047;-73
2022/07/23 06:57:49;;;;;;;8.25;5.80;;;;;;;28.52;33.14;99476.66;5113577;28;20042;-73
2022/07/23 07:00:15;;;;;;;9.52;6.35;;;;;;;28.68;32.61;99488.03;5129361;27;20027;-72
2022/07/23 07:02:40;;;;;;;11.52;7.70;;;;;;;28.85;32.61;99479.34;5113636;28;20026;-73
2022/07/23 07:05:08;;;;;;;9.35;6.72;;;;;;;28.89;33.54;99474.25;5113375;28;20067;-73
2022/07/23 07:07:35;;;;;;;16.75;6.15;;;;;;;29.17;32.80;99480.31;5113548;28;20041;-73
2022/07/23 07:10:01;;;;;;;12.80;5.95;;;;;;;29.36;31.99;99483.38;5095096;28;20412;-73
2022/07/23 07:12:26;;;;;;;14.63;7.50;;;;;;;29.49;32.76;99466.91;5111484;28;20076;-73
2022/07/23 07:14:55;;;;;;;12.13;6.03;;;;;;;29.79;31.49;99481.84;5113198;28;20020;-73
2022/07/23 07:17:20;;;;;;;13.05;6.82;;;;;;;29.94;32.08;99481.34;5113283;28;20024;-73
2022/07/23 07:19:46;;;;;;;22.40;7.40;;;;;;;30.12;31.48;99475.72;5094730;28;20023;-73
2022/07/23 07:22:11;;;;;;;11.32;5.95;;;;;;;30.11;31.10;99471.22;5092984;28;20016;-73
2022/07/23 07:24:37;;;;;;;8.32;5.30;;;;;;;30.01;28.95;99472.41;5092650;28;20375;-73
2022/07/23 07:27:03;;;;;;;9.40;6.28;;;;;;;30.12;30.11;99474.94;5074633;28;20027;-73
2022/07/23 07:29:28;;;;;;;9.57;5.47;;;;;;;30.28;29.66;99473.09;5074290;28;20110;-73
2022/07/23 07:31:54;;;;;;;9.02;5.15;;;;;;;30.51;29.35;99468.88;5091697;28;20027;-73
2022/07/23 07:34:19;;;;;;;12.65;6.47;;;;;;;30.49;28.81;99460.69;5128578;27;20397;-73
2022/07/23 07:36:45;;;;;;;21.08;6.82;;;;;;;30.65;28.14;99465.44;5112974;28;20035;-73
2022/07/23 07:39:10;;;;;;;8.65;5.82;;;;;;;30.88;29.11;99466.16;5094463;28;20028;-73
2022/07/23 07:41:36;;;;;;;16.02;5.90;;;;;;;31.05;29.75;99457.22;5094525;28;20060;-72
2022/07/23 07:44:02;;;;;;;17.52;6.85;;;;;;;31.14;29.07;99465.91;5112604;28;20012;-73
2022/07/23 07:46:27;;;;;;;12.45;5.65;;;;;;;31.34;29.52;99468.38;5112629;28;20030;-73
2022/07/23 07:48:53;;;;;;;8.18;6.00;;;;;;;31.43;29.74;99453.13;5112703;28;20023;-73
2022/07/23 07:51:19;;;;;;;12.73;5.63;;;;;;;31.42;28.29;99447.81;5112823;28;20082;-73
2022/07/23 07:53:45;;;;;;;10.45;5.68;;;;;;;31.50;28.80;99441.25;5128166;27;20080;-73
2022/07/23 07:56:11;;;;;;;15.18;5.57;;;;;;;31.65;28.78;99444.28;5094064;28;20079;-73
2022/07/23 07:58:36;;;;;;;10.73;5.20;;;;;;;31.60;28.73;99435.47;5094167;28;20106;-74
2022/07/23 08:01:02;;;;;;;14.82;6.05;;;;;;;31.98;28.67;99445.75;5111373;28;20026;-75
2022/07/23 08:03:28;;;;;;;14.70;6.15;;;;;;;32.01;28.52;99436.09;5111641;28;20020;-73
2022/07/23 08:05:53;;;;;;;14.30;5.60;;;;;;;32.18;29.01;99450.19;5128059;27;20031;-73
2022/07/23 08:08:19;;;;;;;10.35;6.15;;;;;;;32.29;27.60;99441.78;5094065;28;20042;-73
2022/07/23 08:10:44;;;;;;;13.80;6.55;;;;;;;32.27;27.45;99434.88;5088124;28;20104;-73
2022/07/23 08:13:14;;;;;;;10.57;5.88;;;;;;;32.31;26.93;99433.41;5123028;27;20035;-73
2022/07/23 08:15:39;;;;;;;;;;;;;;;32.42;27.42;99432.13;5100795;28;20039;-73
2022/07/23 08:18:05;;;;;;;9.32;5.63;;;;;;;32.33;27.36;99419.25;5091803;28;20437;-72
2022/07/23 08:20:30;;;;;;;11.27;6.25;;;;;;;32.37;25.75;99412.53;5092667;28;20498;-73
2022/07/23 08:22:58;;;;;;;10.18;5.03;;;;;;;32.57;25.98;99414.88;5127964;27;20486;-72
2022/07/23 08:25:32;;;;;;;14.13;5.45;;;;;;;32.72;25.78;99414.97;5111871;28;20107;-74
2022/07/23 08:28:00;;;;;;;18.73;6.90;;;;;;;32.93;26.02;99406.47;5128207;27;20024;-73
2022/07/23 08:30:26;;;;;;;8.60;5.18;;;;;;;33.12;26.56;99413.75;5112648;28;20081;-74
2022/07/23 08:33:03;;;;;;;20.08;5.93;;;;;;;33.30;24.91;99406.19;5128321;27;20443;-73
2022/07/23 08:35:34;;;;;;;6.28;4.88;;;;;;;33.25;25.86;99404.00;5075464;28;20528;-74
2022/07/23 08:38:03;;;;;;;9.52;5.78;;;;;;;33.41;25.31;99418.03;5088938;28;20565;-76
2022/07/23 08:40:31;;;;;;;11.77;5.68;;;;;;;33.55;23.73;99409.91;5070622;28;20422;-80
2022/07/23 08:42:57;;;;;;;9.90;5.45;;;;;;;33.25;24.25;99399.03;5070846;28;20036;-77
2022/07/23 08:45:24;;;;;;;13.38;5.63;;;;;;;33.50;23.80;99408.50;5070143;28;20054;-76
2022/07/23 08:47:51;;;;;;;11.13;6.38;;;;;;;33.69;24.45;99396.72;5104225;28;20108;-75
2022/07/23 08:50:17;;;;;;;16.83;5.28;;;;;;;33.84;24.18;99408.34;5104398;28;20059;-76
2022/07/23 08:52:42;;;;;;;10.60;6.53;;;;;;;34.04;24.28;99396.06;5102445;28;20579;-75
2022/07/23 08:55:08;;;;;;;8.77;4.93;;;;;;;34.14;25.52;99390.94;5070338;28;20020;-75
2022/07/23 08:57:34;;;;;;;7.75;5.13;;;;;;;34.36;23.05;99396.31;5088916;28;20556;-75
2022/07/23 09:00:00;;;;;;;10.88;4.82;;;;;;;34.49;22.76;99392.31;5088686;28;20047;-73
2022/07/23 09:02:25;;;;;;;11.13;5.70;;;;;;;34.72;21.89;99385.56;5104347;28;20028;-76
2022/07/23 09:04:51;;;;;;;10.48;5.75;;;;;;;34.75;23.14;99391.66;5087193;28;20051;-76
2022/07/23 09:07:16;;;;;;;9.70;4.90;;;;;;;34.83;22.59;99393.63;5104219;28;20036;-73
2022/07/23 09:09:41;;;;;;;19.40;5.97;;;;;;;34.73;22.60;99395.03;5103974;28;20020;-74
2022/07/23 09:12:10;;;;;;;11.65;5.75;;;;;;;34.63;22.77;99385.69;5088425;28;20027;-71
2022/07/23 09:14:46;;;;;;;14.68;6.07;;;;;;;34.28;21.48;99401.75;5080479;28;20085;-74
2022/07/23 09:17:17;;;;;;;16.85;7.20;;;;;;;34.44;22.46;99397.50;5092441;28;20540;-73
2022/07/23 09:19:45;;;;;;;12.40;6.15;;;;;;;34.52;21.72;99383.41;5106861;28;20498;-75
2022/07/23 09:22:26;;;;;;;18.58;5.80;;;;;;;34.98;20.85;99387.75;5108516;28;20026;-76
2022/07/23 09:25:06;;;;;;;10.65;5.13;;;;;;;35.32;19.88;99381.56;5120534;27;20478;-74
2022/07/23 09:27:55;;;;;;;15.82;5.43;;;;;;;35.50;18.98;99379.66;5118896;27;20093;-73
2022/07/23 09:30:29;;;;;;;10.68;5.07;;;;;;;35.62;18.74;99372.69;5106893;28;20046;-73
2022/07/23 09:33:09;;;;;;;10.00;5.32;;;;;;;35.86;20.28;99383.25;5076516;28;20050;-73
2022/07/23 09:35:55;;;;;;;14.38;5.55;;;;;;;35.95;19.09;99371.41;5094440;28;20020;-75
2022/07/23 09:38:24;;;;;;;14.70;6.53;;;;;;;35.90;18.82;99366.34;5094650;28;20028;-74
2022/07/23 09:41:33;;;;;;;10.07;5.07;;;;;;;35.91;19.84;99362.13;5110035;28;20169;-73
2022/07/23 09:44:05;;;;;;;;;;;;;;;36.26;18.48;99360.28;5039281;28;20429;-74
2022/07/23 09:46:31;;;;;;;11.30;5.70;;;;;;;36.39;19.01;99362.78;5087672;28;19908;-74
2022/07/23 09:48:57;;;;;;;15.68;5.95;;;;;;;36.32;18.26;99352.41;5095055;28;20020;-73
2022/07/23 09:53:51;;;;;;;12.88;4.30;;;;;;;36.43;18.58;99350.91;5094328;28;20096;-73
2022/07/23 09:56:19;;;;;;;11.95;4.50;;;;;;;36.34;17.77;99349.00;5094243;28;20490;-73
2022/07/23 09:58:49;;;;;;;8.57;4.30;;;;;;;36.56;17.92;99348.38;5075965;28;20020;-73
2022/07/23 10:01:15;;;;;;;12.23;4.80;;;;;;;36.64;18.09;99357.41;5110508;28;20028;-73
2022/07/23 10:03:42;;;;;;;8.35;5.50;;;;;;;36.80;18.24;99347.16;5094087;28;20105;-73
2022/07/23 10:06:13;;;;;;;13.35;5.03;;;;;;;36.77;18.17;99348.22;5109899;28;20505;-73
2022/07/23 10:08:44;;;;;;;11.35;5.15;;;;;;;36.59;18.29;99344.41;5094089;28;20028;-73
2022/07/23 10:11:12;;;;;;;12.55;5.60;;;;;;;36.63;17.99;99336.25;5093849;28;20065;-74
2022/07/23 10:16:13;;;;;;;13.02;5.10;;;;;;;36.99;18.08;99338.78;5094131;28;20086;-73
2022/07/23 10:18:39;;;;;;;9.80;5.05;;;;;;;37.11;17.80;99336.75;5094410;28;20024;-74
2022/07/23 10:21:08;;;;;;;11.38;5.20;;;;;;;37.17;17.07;99328.03;5109530;28;20386;-74
2022/07/23 10:23:42;;;;;;;17.02;5.00;;;;;;;37.18;18.63;99326.69;5075608;28;20016;-74
2022/07/23 10:26:21;;;;;;;13.95;6.20;;;;;;;37.57;18.68;99331.84;5093282;28;20043;-73
2022/07/23 10:29:00;;;;;;;9.18;5.03;;;;;;;37.26;18.12;99333.59;5093776;28;20142;-74
2022/07/23 10:31:48;;;;;;;13.30;5.15;;;;;;;36.94;17.75;99333.72;5093650;28;20495;-75
2022/07/23 10:34:27;;;;;;;14.33;5.17;;;;;;;37.08;17.46;99326.94;5056522;28;20054;-74
2022/07/23 10:36:53;;;;;;;;;;;;;;;37.23;18.37;99320.88;5076422;28;20112;-73
2022/07/23 10:39:32;;;;;;;13.53;4.43;;;;;;;37.23;17.52;99320.06;5093632;28;20349;-74
2022/07/23 10:42:15;;;;;;;8.93;4.57;;;;;;;37.39;17.10;99314.81;5093367;28;20024;-75
2022/07/23 10:44:42;;;;;;;13.75;4.60;;;;;;;37.70;17.61;99310.09;5093332;28;20110;-74
2022/07/23 10:49:46;;;;;;;10.82;5.53;;;;;;;37.69;18.04;99302.69;5093330;28;20056;-73
2022/07/23 10:52:16;;;;;;;12.07;5.00;;;;;;;38.04;17.93;99305.06;5093708;28;20066;-74
2022/07/23 10:54:46;;;;;;;8.10;5.22;;;;;;;38.16;17.43;99305.06;5093008;28;20118;-74
2022/07/23 10:57:14;;;;;;;14.68;5.40;;;;;;;37.92;17.22;99298.44;5074974;28;20043;-73
2022/07/23 11:00:11;;;;;;;6.18;5.00;;;;;;;37.87;17.58;99301.34;5093122;28;20489;-73
2022/07/23 11:02:38;;;;;;;10.98;5.35;;;;;;;37.99;16.71;99284.63;5074832;28;20024;-74
2022/07/23 11:05:07;;;;;;;13.05;5.22;;;;;;;37.94;17.04;99277.47;5092805;28;20040;-74
2022/07/23 11:07:33;;;;;;;13.40;6.18;;;;;;;37.86;17.22;99280.13;5092957;28;20024;-74
2022/07/23 11:09:59;;;;;;;19.05;5.30;;;;;;;38.10;17.59;99278.81;5093601;28;20028;-74
2022/07/23 11:12:27;;;;;;;9.75;5.10;;;;;;;38.12;18.16;99279.06;5092857;28;20393;-74
2022/07/23 11:15:13;;;;;;;9.38;5.53;;;;;;;38.27;17.16;99280.91;5093334;28;20073;-74
2022/07/23 11:17:50;;;;;;;13.52;5.32;;;;;;;38.15;16.22;99275.09;5094999;28;20031;-74
2022/07/23 11:20:18;;;;;;;11.25;5.75;;;;;;;38.32;17.48;99269.22;5105440;28;20406;-74
2022/07/23 11:22:44;;;;;;;7.93;4.90;;;;;;;38.23;16.87;99262.84;5099053;28;20020;-74
2022/07/23 11:25:34;;;;;;;14.70;5.43;;;;;;;38.20;17.26;99270.59;5109221;27;20106;-75
2022/07/23 11:28:20;;;;;;;13.13;5.32;;;;;;;38.48;16.62;99258.03;5067105;28;20035;-75
2022/07/23 11:30:47;;;;;;;18.90;5.53;;;;;;;38.50;17.19;99257.53;5092751;28;20020;-76
2022/07/23 11:33:13;;;;;;;15.73;4.93;;;;;;;38.63;16.93;99263.56;5092599;28;20098;-75
2022/07/23 11:35:40;;;;;;;21.02;6.20;;;;;;;38.54;15.93;99255.09;5092418;28;20158;-75
2022/07/23 11:38:14;;;;;;;13.98;5.60;;;;;;;38.54;15.72;99258.03;5091658;28;20024;-75
2022/07/23 11:40:40;;;;;;;23.80;5.93;;;;;;;38.79;16.01;99258.19;5092546;28;20027;-75
2022/07/23 11:43:08;;;;;;;7.78;5.00;;;;;;;39.12;16.00;99250.59;5092449;28;20036;-75
2022/07/23 11:45:38;;;;;;;9.80;5.22;;;;;;;39.26;15.65;99242.78;5096860;28;20024;-75
2022/07/23 11:48:06;;;;;;;13.95;5.75;;;;;;;39.50;15.52;99250.06;5100829;28;20070;-75